TimePDT,TemperatureF,Dew PointF,Humidity,Sea Level PressureIn,VisibilityMPH,Wind Direction,Wind SpeedMPH,Gust SpeedMPH,PrecipitationIn,Events,Conditions,WindDirDegrees,DateUTC
12:10 AM,50.0,19.4,30,30.27,7.0,North,13.8,19.6,N/A,,Scattered Clouds,10,2012-10-03 07:10:00
12:52 AM,50.0,19.0,29,30.27,10.0,North,17.3,23.0,N/A,,Clear,350,2012-10-03 07:52:00
1:52 AM,45.0,18.0,34,30.30,10.0,WNW,6.9,-,N/A,,Clear,300,2012-10-03 08:52:00
2:52 AM,45.0,19.0,36,30.31,10.0,North,13.8,-,N/A,,Clear,350,2012-10-03 09:52:00
3:52 AM,46.0,21.9,39,30.32,10.0,North,13.8,-,N/A,,Clear,10,2012-10-03 10:52:00
4:52 AM,46.9,23.0,39,30.34,4.0,North,16.1,-,N/A,,Haze,10,2012-10-03 11:52:00
5:52 AM,39.9,23.0,51,30.39,5.0,NNW,6.9,-,N/A,,Haze,330,2012-10-03 12:52:00
6:52 AM,39.0,23.0,53,30.39,8.0,NE,9.2,-,N/A,,Smoke,40,2012-10-03 13:52:00
7:52 AM,42.1,25.0,51,30.42,4.0,NE,8.1,-,N/A,,Smoke,40,2012-10-03 14:52:00
8:52 AM,48.0,26.1,42,30.45,5.0,Calm,Calm,-,N/A,,Smoke,0,2012-10-03 15:52:00
9:52 AM,55.9,25.0,30,30.44,9.0,NE,10.4,-,N/A,,Smoke,40,2012-10-03 16:52:00
10:52 AM,60.1,21.9,23,30.44,10.0,NE,10.4,23.0,N/A,,Smoke,50,2012-10-03 17:52:00
11:52 AM,63.0,23.0,22,30.43,10.0,ENE,12.7,-,N/A,,Smoke,70,2012-10-03 18:52:00
12:52 PM,63.0,23.0,22,30.40,10.0,ENE,10.4,-,N/A,,Smoke,70,2012-10-03 19:52:00
1:52 PM,64.0,24.1,22,30.39,10.0,ENE,9.2,16.1,N/A,,Clear,70,2012-10-03 20:52:00
2:52 PM,64.0,24.1,22,30.37,10.0,ENE,5.8,18.4,N/A,,Clear,60,2012-10-03 21:52:00
3:52 PM,64.9,24.1,21,30.36,10.0,East,10.4,-,N/A,,Clear,90,2012-10-03 22:52:00
4:52 PM,63.0,25.0,24,30.35,10.0,ENE,4.6,18.4,N/A,,Clear,70,2012-10-03 23:52:00
5:52 PM,62.1,25.0,24,30.35,10.0,ENE,6.9,-,N/A,,Clear,70,2012-10-04 00:52:00
6:52 PM,55.9,26.1,32,30.34,10.0,NE,8.1,-,N/A,,Clear,50,2012-10-04 01:52:00
7:52 PM,51.8,24.8,35,30.33,10.0,NE,6.9,-,N/A,,Clear,40,2012-10-04 02:52:00
8:52 PM,46.0,24.1,42,30.49,10.0,NNE,6.9,-,N/A,,Clear,20,2012-10-04 03:52:00
9:52 PM,44.1,23.0,43,30.34,10.0,North,6.9,-,N/A,,Clear,10,2012-10-04 04:52:00
10:52 PM,43.0,21.9,43,30.33,10.0,North,5.8,-,N/A,,Clear,10,2012-10-04 05:52:00
11:52 PM,42.1,21.9,45,30.33,10.0,North,8.1,-,N/A,,Clear,10,2012-10-04 06:52:00